Time;durP1;ratioP1;P1;durP2;ratioP2;P2;SDS_P1;SDS_P2;PMS_P1;PMS_P2;Temp;Humidity;BMP_temperature;BMP_pressure;BME280_temperature;BME280_humidity;BME280_pressure;Samples;Min_cycle;Max_cycle;Signal;HPM_P1;HPM_P2
2022/11/14 00:02:01;;;;;;;12.52;11.23;;;4.20;99.90;;;;;;4948361;29;20043;-75
2022/11/14 00:04:46;;;;;;;10.98;9.95;;;4.10;99.90;;;;;;4948440;29;20059;-75
2022/11/14 00:07:32;;;;;;;10.05;9.07;;;4.00;99.90;;;;;;4933700;29;20067;-76
2022/11/14 00:10:16;;;;;;;12.50;11.43;;;3.80;99.90;;;;;;4948429;29;20051;-75
2022/11/14 00:13:02;;;;;;;13.05;11.75;;;3.80;99.90;;;;;;4948358;29;20038;-76
2022/11/14 00:15:54;;;;;;;13.20;11.30;;;3.80;99.90;;;;;;4933551;29;20039;-75
2022/11/14 00:18:39;;;;;;;13.30;11.80;;;3.70;99.90;;;;;;4933814;29;20087;-75
2022/11/14 00:21:24;;;;;;;11.70;9.93;;;3.60;99.90;;;;;;4948274;29;20043;-76
2022/11/14 00:24:08;;;;;;;11.10;9.25;;;3.60;99.90;;;;;;4948155;29;20043;-76
2022/11/14 00:26:52;;;;;;;10.05;8.98;;;3.50;99.90;;;;;;4933835;29;20508;-75
2022/11/14 00:29:37;;;;;;;11.63;10.43;;;3.40;99.90;;;;;;4949257;29;20157;-76
2022/11/14 00:32:22;;;;;;;31.08;21.67;;;3.40;99.90;;;;;;4951820;29;20050;-76
2022/11/14 00:35:08;;;;;;;16.48;14.95;;;3.30;99.90;;;;;;4951716;29;20409;-75
2022/11/14 00:37:52;;;;;;;16.35;12.68;;;3.30;99.90;;;;;;4937476;29;20054;-75
2022/11/14 00:40:37;;;;;;;13.95;12.20;;;3.20;99.90;;;;;;4951583;29;20059;-76
2022/11/14 00:43:21;;;;;;;12.52;11.32;;;3.20;99.90;;;;;;4951431;29;20046;-76
2022/11/14 00:46:05;;;;;;;14.77;11.48;;;3.20;99.90;;;;;;4923478;29;20046;-76
2022/11/14 00:48:49;;;;;;;13.93;12.63;;;3.30;99.90;;;;;;4951378;29;20055;-76
2022/11/14 00:51:35;;;;;;;10.73;9.80;;;3.30;99.90;;;;;;4951536;29;20047;-76
2022/11/14 00:54:20;;;;;;;14.15;12.75;;;3.40;99.90;;;;;;4937091;29;20042;-75
2022/11/14 00:57:04;;;;;;;10.70;9.73;;;3.30;99.90;;;;;;4951249;29;20043;-75
2022/11/14 00:59:49;;;;;;;12.98;11.80;;;3.30;99.90;;;;;;4951168;29;20050;-75
2022/11/14 01:02:33;;;;;;;11.98;10.90;;;3.20;99.90;;;;;;4910320;29;20058;-76
2022/11/14 01:05:18;;;;;;;13.95;12.25;;;3.10;99.90;;;;;;4951265;29;20046;-76
2022/11/14 01:08:02;;;;;;;11.40;9.48;;;3.00;99.90;;;;;;4936597;29;20103;-76
2022/11/14 01:10:49;;;;;;;12.75;11.50;;;2.90;99.90;;;;;;4951261;29;20058;-75
2022/11/14 01:13:34;;;;;;;11.73;10.52;;;2.80;99.90;;;;;;4936427;29;20035;-75
2022/11/14 01:16:19;;;;;;;11.07;9.80;;;2.70;99.90;;;;;;4950998;29;20054;-76
2022/11/14 01:19:03;;;;;;;10.48;9.05;;;2.70;99.90;;;;;;4950797;29;20046;-75
2022/11/14 01:21:48;;;;;;;11.45;10.40;;;2.60;99.90;;;;;;4936472;29;20625;-76
2022/11/14 01:24:33;;;;;;;10.15;9.20;;;2.50;99.90;;;;;;4936651;29;20046;-75
2022/11/14 01:27:18;;;;;;;11.85;10.57;;;2.40;99.90;;;;;;4936480;29;20128;-76
2022/11/14 01:30:03;;;;;;;10.10;9.05;;;2.30;99.90;;;;;;4950403;29;20058;-76
2022/11/14 01:32:48;;;;;;;13.50;10.82;;;2.20;99.90;;;;;;4950733;29;20066;-76
2022/11/14 01:35:34;;;;;;;13.45;12.18;;;2.10;99.90;;;;;;4950693;29;20050;-75
2022/11/14 01:38:19;;;;;;;14.45;10.02;;;2.00;99.90;;;;;;4950504;29;20043;-75
2022/11/14 01:41:04;;;;;;;13.82;10.73;;;2.10;99.90;;;;;;4949580;29;20062;-75
2022/11/14 01:43:49;;;;;;;11.88;10.75;;;2.00;99.90;;;;;;4935799;29;20039;-76
2022/11/14 01:46:37;;;;;;;12.52;10.95;;;1.90;99.90;;;;;;4936294;29;20071;-75
2022/11/14 01:49:33;;;;;;;12.30;11.25;;;1.90;99.90;;;;;;4950509;29;20050;-75
2022/11/14 01:52:39;;;;;;;13.25;11.25;;;1.90;99.90;;;;;;4950336;29;20120;-76
2022/11/14 01:55:26;;;;;;;12.90;11.57;;;1.90;99.90;;;;;;4950263;29;20102;-76
2022/11/14 01:58:11;;;;;;;13.95;11.98;;;1.90;99.90;;;;;;4950231;29;20051;-75
2022/11/14 02:00:56;;;;;;;14.35;12.25;;;2.00;99.90;;;;;;4950224;29;20035;-75
2022/11/14 02:03:43;;;;;;;14.57;11.68;;;2.10;99.90;;;;;;4950369;29;20062;-75
2022/11/14 02:06:29;;;;;;;15.95;13.18;;;2.00;99.90;;;;;;4950312;29;20461;-75
2022/11/14 02:09:14;;;;;;;16.80;13.73;;;1.80;99.90;;;;;;4935844;29;20071;-75
2022/11/14 02:12:01;;;;;;;14.27;12.82;;;1.70;99.90;;;;;;4950315;29;20051;-75
2022/11/14 02:14:48;;;;;;;14.18;12.88;;;1.70;99.90;;;;;;4935361;29;20046;-76
2022/11/14 02:17:32;;;;;;;13.70;12.63;;;1.60;99.90;;;;;;4949920;29;20046;-75
2022/11/14 02:20:20;;;;;;;15.18;11.30;;;1.60;99.90;;;;;;4949705;29;20043;-75
2022/11/14 02:23:05;;;;;;;17.73;11.43;;;1.50;99.90;;;;;;4949962;29;20044;-75
2022/11/14 02:25:49;;;;;;;13.65;10.75;;;1.50;99.90;;;;;;4949712;29;20050;-75
2022/11/14 02:28:34;;;;;;;13.75;11.52;;;1.50;99.90;;;;;;4949786;29;20055;-75
2022/11/14 02:31:18;;;;;;;11.25;10.30;;;1.40;99.90;;;;;;4949754;29;20043;-75
2022/11/14 02:34:03;;;;;;;15.50;11.70;;;1.30;99.90;;;;;;4949835;29;20047;-75
2022/11/14 02:36:47;;;;;;;11.82;10.38;;;1.30;99.90;;;;;;4949486;29;20091;-76
2022/11/14 02:39:32;;;;;;;10.93;9.88;;;1.30;99.90;;;;;;4935100;29;20150;-76
2022/11/14 02:42:16;;;;;;;13.27;12.02;;;1.20;99.90;;;;;;4941602;29;20469;-76
2022/11/14 02:45:00;;;;;;;13.55;12.25;;;1.20;99.90;;;;;;4949507;29;20392;-75
2022/11/14 02:47:44;;;;;;;15.15;12.15;;;1.10;99.90;;;;;;4949560;29;20058;-76
2022/11/14 02:50:28;;;;;;;13.07;11.77;;;1.00;99.90;;;;;;4949359;29;20099;-75
2022/11/14 02:53:13;;;;;;;14.13;12.48;;;1.00;99.90;;;;;;4949154;29;20052;-75
2022/11/14 02:55:58;;;;;;;12.25;11.07;;;0.90;99.90;;;;;;4949174;29;20045;-75
2022/11/14 02:58:42;;;;;;;12.02;10.60;;;0.90;99.90;;;;;;4949245;29;20042;-75
2022/11/14 03:01:26;;;;;;;10.55;9.75;;;0.90;99.90;;;;;;4949426;29;20064;-75
2022/11/14 03:04:10;;;;;;;11.18;10.02;;;0.80;99.90;;;;;;4934933;29;20079;-75
2022/11/14 03:06:55;;;;;;;11.63;10.55;;;0.70;99.90;;;;;;4934482;29;20496;-76
2022/11/14 03:09:39;;;;;;;10.75;9.77;;;0.70;99.90;;;;;;4949253;29;20046;-75
2022/11/14 03:12:23;;;;;;;15.95;11.48;;;0.80;99.90;;;;;;4949053;29;20049;-75
2022/11/14 03:15:08;;;;;;;12.77;11.35;;;0.80;99.90;;;;;;4949086;29;20420;-75
2022/11/14 03:17:53;;;;;;;17.83;12.82;;;0.80;99.90;;;;;;4934625;29;20074;-75
2022/11/14 03:20:37;;;;;;;15.07;12.38;;;0.80;99.90;;;;;;4948718;29;20119;-75
2022/11/14 03:23:22;;;;;;;15.38;12.35;;;0.80;99.90;;;;;;4948893;29;20042;-75
2022/11/14 03:26:08;;;;;;;12.18;9.98;;;0.80;99.90;;;;;;4948738;29;20047;-75
2022/11/14 03:28:54;;;;;;;12.48;11.27;;;0.80;99.90;;;;;;4948534;29;20046;-75
2022/11/14 03:31:39;;;;;;;14.93;13.38;;;0.80;99.90;;;;;;4948653;29;20054;-75
2022/11/14 03:34:23;;;;;;;11.75;10.55;;;0.70;99.90;;;;;;4948972;29;20082;-75
2022/11/14 03:37:08;;;;;;;13.70;12.35;;;0.60;99.90;;;;;;4948555;29;20099;-75
2022/11/14 03:39:52;;;;;;;12.82;11.52;;;0.70;99.90;;;;;;4934144;29;20086;-75
2022/11/14 03:42:37;;;;;;;16.00;13.10;;;0.70;99.90;;;;;;4955136;29;20047;-76
2022/11/14 03:45:21;;;;;;;13.45;12.18;;;0.60;99.90;;;;;;4948481;29;20066;-76
2022/11/14 03:48:06;;;;;;;13.02;11.82;;;0.60;99.90;;;;;;4934135;29;20076;-75
2022/11/14 03:50:50;;;;;;;13.50;12.20;;;0.50;99.90;;;;;;4948737;29;20046;-75
2022/11/14 03:53:35;;;;;;;12.07;10.95;;;0.50;99.90;;;;;;4920922;29;20098;-75
2022/11/14 03:56:19;;;;;;;12.63;11.43;;;0.50;99.90;;;;;;4948519;29;20072;-75
2022/11/14 03:59:04;;;;;;;13.02;11.88;;;0.50;99.90;;;;;;4948422;29;20034;-75
2022/11/14 04:01:49;;;;;;;12.77;11.45;;;0.40;99.90;;;;;;4948615;29;20075;-75
2022/11/14 04:04:33;;;;;;;11.98;10.38;;;0.30;99.90;;;;;;4950016;29;20124;-74
2022/11/14 04:07:18;;;;;;;12.63;10.52;;;0.30;99.90;;;;;;4952329;29;20532;-75
2022/11/14 04:10:02;;;;;;;11.32;10.23;;;0.30;99.90;;;;;;4952551;29;20047;-75
2022/11/14 04:12:51;;;;;;;14.00;12.65;;;0.20;99.90;;;;;;4952260;29;20050;-75
2022/11/14 04:15:36;;;;;;;15.85;13.43;;;0.30;99.90;;;;;;4952285;29;20108;-74
2022/11/14 04:18:21;;;;;;;13.35;12.05;;;0.40;99.90;;;;;;4937879;29;20098;-75
2022/11/14 04:21:05;;;;;;;14.02;12.82;;;0.50;99.90;;;;;;4919040;29;20068;-76
2022/11/14 04:23:50;;;;;;;13.65;11.55;;;0.50;99.90;;;;;;4918863;29;20052;-75
2022/11/14 04:26:34;;;;;;;14.20;12.30;;;0.50;99.90;;;;;;4932971;29;20059;-75
2022/11/14 04:29:18;;;;;;;13.10;11.80;;;0.40;99.90;;;;;;4948169;29;20094;-75
2022/11/14 04:32:02;;;;;;;13.63;12.00;;;0.40;99.90;;;;;;4951990;29;20043;-75
2022/11/14 04:34:47;;;;;;;12.85;11.48;;;0.40;99.90;;;;;;4951927;29;20063;-75
2022/11/14 04:37:31;;;;;;;13.55;11.77;;;0.30;99.90;;;;;;4951740;29;20047;-76
2022/11/14 04:40:15;;;;;;;13.10;11.93;;;0.10;99.90;;;;;;4951673;29;20071;-75
2022/11/14 04:42:59;;;;;;;11.98;10.40;;;0.00;99.90;;;;;;4951791;29;20062;-75
2022/11/14 04:45:43;;;;;;;12.95;11.75;;;0.00;99.90;;;;;;4951344;29;20080;-75
2022/11/14 04:48:28;;;;;;;12.50;11.63;;;-0.10;99.90;;;;;;4951488;29;20099;-75
2022/11/14 04:51:12;;;;;;;14.30;12.98;;;-0.10;99.90;;;;;;4951548;29;20051;-74
2022/11/14 04:53:58;;;;;;;19.40;12.80;;;-0.20;99.90;;;;;;4951527;29;20042;-75
2022/11/14 04:56:42;;;;;;;11.70;10.60;;;-0.20;99.90;;;;;;4951265;29;20051;-75
2022/11/14 04:59:26;;;;;;;12.07;11.15;;;-0.20;99.90;;;;;;4951089;29;20102;-75
2022/11/14 05:02:11;;;;;;;16.33;12.23;;;-0.30;99.90;;;;;;4951439;29;20124;-75
2022/11/14 05:04:56;;;;;;;11.52;10.50;;;-0.30;99.90;;;;;;4951120;29;20047;-75
2022/11/14 05:07:41;;;;;;;9.85;8.98;;;-0.30;99.90;;;;;;4951232;29;20075;-75
2022/11/14 05:10:25;;;;;;;13.80;12.40;;;-0.30;99.90;;;;;;4951238;29;20047;-75
2022/11/14 05:13:11;;;;;;;12.63;11.52;;;-0.30;99.90;;;;;;4951295;29;20108;-74
2022/11/14 05:15:59;;;;;;;14.55;11.68;;;-0.30;99.90;;;;;;4950757;29;20074;-75
2022/11/14 05:18:43;;;;;;;13.30;12.05;;;-0.30;99.90;;;;;;4950621;29;20055;-75
2022/11/14 05:21:27;;;;;;;11.82;10.82;;;-0.30;99.90;;;;;;4931808;29;20068;-75
2022/11/14 05:24:12;;;;;;;13.63;12.18;;;-0.30;99.90;;;;;;4931930;29;20051;-75
2022/11/14 05:26:57;;;;;;;13.02;11.95;;;-0.30;99.90;;;;;;4931779;29;20047;-75
2022/11/14 05:29:42;;;;;;;16.60;12.25;;;-0.30;99.90;;;;;;4931836;29;20091;-75
2022/11/14 05:32:27;;;;;;;11.13;10.13;;;-0.30;99.90;;;;;;4934757;29;20042;-74
2022/11/14 05:35:11;;;;;;;12.35;10.95;;;-0.40;99.90;;;;;;4933760;29;20074;-75
2022/11/14 05:37:59;;;;;;;13.20;12.13;;;-0.40;99.90;;;;;;4940515;29;20398;-75
2022/11/14 05:40:43;;;;;;;13.85;12.45;;;-0.50;99.90;;;;;;4941597;29;20110;-75
2022/11/14 05:43:29;;;;;;;14.65;13.18;;;-0.40;99.90;;;;;;4945970;29;20046;-74
2022/11/14 05:46:15;;;;;;;14.35;13.02;;;-0.40;99.90;;;;;;4948273;29;20073;-74
2022/11/14 05:48:59;;;;;;;21.50;12.98;;;-0.50;99.90;;;;;;4952437;29;20114;-75
2022/11/14 05:51:43;;;;;;;17.88;12.40;;;-0.40;99.90;;;;;;4954497;29;20066;-75
2022/11/14 05:54:27;;;;;;;15.60;12.73;;;-0.30;99.90;;;;;;4957405;29;20050;-75
2022/11/14 05:57:12;;;;;;;16.10;13.35;;;-0.40;99.90;;;;;;4919798;29;20046;-75
2022/11/14 05:59:56;;;;;;;16.13;14.35;;;-0.40;99.90;;;;;;4969065;29;20038;-74
2022/11/14 06:02:40;;;;;;;14.30;11.43;;;-0.40;99.90;;;;;;4954813;29;20177;-75
2022/11/14 06:05:25;;;;;;;15.60;12.50;;;-0.40;99.90;;;;;;4940627;29;20106;-75
2022/11/14 06:08:10;;;;;;;12.85;11.57;;;-0.30;99.90;;;;;;4949477;29;20098;-74
2022/11/14 06:10:54;;;;;;;15.63;14.10;;;-0.40;99.90;;;;;;4967841;29;20050;-74
2022/11/14 06:13:40;;;;;;;14.73;13.18;;;-0.40;99.90;;;;;;4944758;29;20058;-74
2022/11/14 06:16:24;;;;;;;18.27;16.13;;;-0.30;99.90;;;;;;4943515;29;20047;-75
2022/11/14 06:19:09;;;;;;;16.38;14.88;;;-0.20;99.90;;;;;;4946236;29;20468;-75
2022/11/14 06:21:53;;;;;;;16.13;14.68;;;-0.20;99.90;;;;;;4925806;29;20101;-75
2022/11/14 06:24:37;;;;;;;17.63;15.98;;;-0.30;99.90;;;;;;4949007;29;20453;-75
2022/11/14 06:27:22;;;;;;;16.48;14.80;;;-0.20;99.90;;;;;;4948929;29;20050;-75
2022/11/14 06:30:06;;;;;;;14.73;13.23;;;-0.30;99.90;;;;;;4949315;29;20043;-74
2022/11/14 06:32:57;;;;;;;17.45;14.90;;;-0.30;99.90;;;;;;4934963;29;20046;-75
2022/11/14 06:35:42;;;;;;;15.13;13.82;;;-0.30;99.90;;;;;;4949251;29;20073;-75
2022/11/14 06:38:27;;;;;;;13.32;12.27;;;-0.20;99.90;;;;;;4948613;29;20047;-74
2022/11/14 06:41:20;;;;;;;16.08;12.90;;;-0.30;99.90;;;;;;4948970;29;20055;-75
2022/11/14 06:44:07;;;;;;;14.65;13.25;;;-0.40;99.90;;;;;;4934576;29;20046;-77
2022/11/14 06:46:51;;;;;;;19.98;18.00;;;-0.30;99.90;;;;;;4939727;29;20095;-74
2022/11/14 06:49:36;;;;;;;20.77;17.73;;;-0.40;99.90;;;;;;4949393;29;20075;-75
2022/11/14 06:52:21;;;;;;;20.90;18.90;;;-0.20;99.90;;;;;;4949322;29;20070;-77
2022/11/14 06:55:05;;;;;;;18.58;16.95;;;-0.20;99.90;;;;;;4949313;29;20071;-76
2022/11/14 06:57:54;;;;;;;20.27;18.38;;;-0.10;99.90;;;;;;4934913;29;20516;-75
2022/11/14 07:00:38;;;;;;;18.83;16.88;;;-0.10;99.90;;;;;;4949513;29;20059;-74
2022/11/14 07:03:22;;;;;;;20.05;16.88;;;-0.10;99.90;;;;;;4948366;29;20046;-76
2022/11/14 07:06:08;;;;;;;18.05;16.40;;;0.00;99.90;;;;;;4949142;29;20058;-76
2022/11/14 07:08:54;;;;;;;18.85;17.05;;;0.10;99.90;;;;;;4948841;29;20046;-77
2022/11/14 07:11:39;;;;;;;19.27;17.48;;;0.20;99.90;;;;;;4949054;29;20050;-77
2022/11/14 07:14:23;;;;;;;18.98;17.05;;;0.30;99.90;;;;;;4948875;29;20141;-76
2022/11/14 07:17:07;;;;;;;20.52;17.65;;;0.30;99.90;;;;;;4949242;29;20054;-74
2022/11/14 07:19:52;;;;;;;21.75;19.77;;;0.40;99.90;;;;;;4959917;29;20090;-74
2022/11/14 07:22:36;;;;;;;19.83;18.05;;;0.40;99.90;;;;;;4948940;29;20051;-75
2022/11/14 07:25:22;;;;;;;17.90;15.63;;;0.50;99.90;;;;;;4949089;29;20043;-76
2022/11/14 07:28:06;;;;;;;17.58;15.43;;;0.40;99.90;;;;;;4948933;29;20128;-76
2022/11/14 07:30:51;;;;;;;18.35;16.55;;;0.40;99.90;;;;;;4934537;29;20086;-77
2022/11/14 07:33:35;;;;;;;28.58;25.60;;;0.40;99.90;;;;;;4948524;29;20046;-74
2022/11/14 07:36:19;;;;;;;21.05;16.98;;;0.40;99.90;;;;;;4948859;29;20098;-76
2022/11/14 07:39:03;;;;;;;19.33;17.55;;;0.60;99.90;;;;;;4948693;28;20066;-76
2022/11/14 07:41:48;;;;;;;18.15;16.45;;;0.90;99.90;;;;;;4948717;29;20057;-75
2022/11/14 07:44:33;;;;;;;20.98;18.95;;;1.30;99.90;;;;;;4947795;29;20616;-76
2022/11/14 07:47:17;;;;;;;24.67;21.38;;;1.80;99.90;;;;;;4948650;29;20071;-76
2022/11/14 07:50:02;;;;;;;24.63;20.67;;;2.20;99.90;;;;;;4934180;29;20051;-76
2022/11/14 07:52:51;;;;;;;26.75;21.73;;;2.60;99.90;;;;;;4934071;29;20511;-76
2022/11/14 07:55:36;;;;;;;18.77;17.02;;;3.00;99.90;;;;;;4947639;29;20047;-76
2022/11/14 07:58:21;;;;;;;13.88;12.60;;;4.20;99.90;;;;;;4948698;29;20126;-76
2022/11/14 08:01:07;;;;;;;11.95;10.90;;;6.80;99.90;;;;;;4948556;29;20048;-76
2022/11/14 08:03:51;;;;;;;9.60;8.65;;;9.10;99.90;;;;;;4948102;29;20047;-76
2022/11/14 08:06:36;;;;;;;9.43;7.45;;;11.10;99.90;;;;;;4948410;29;20042;-76
2022/11/14 08:09:22;;;;;;;6.70;6.10;;;12.70;99.90;;;;;;4948121;29;20042;-76
2022/11/14 08:12:07;;;;;;;12.00;10.27;;;13.80;99.90;;;;;;4945552;29;20046;-76
2022/11/14 08:14:51;;;;;;;36.55;25.08;;;14.00;99.90;;;;;;4948284;29;20038;-75
2022/11/14 08:17:36;;;;;;;6.90;6.20;;;14.90;99.60;;;;;;4948340;29;20043;-76
2022/11/14 08:20:20;;;;;;;22.77;14.93;;;16.60;98.40;;;;;;4947889;29;20103;-76
2022/11/14 08:23:05;;;;;;;17.85;9.52;;;17.20;97.60;;;;;;4948269;29;20099;-76
2022/11/14 08:25:50;;;;;;;10.95;6.75;;;17.20;97.00;;;;;;4948359;29;20071;-76
2022/11/14 08:28:35;;;;;;;8.68;5.78;;;18.10;96.00;;;;;;4948071;29;20088;-76
2022/11/14 08:31:20;;;;;;;13.05;10.75;;;18.40;95.20;;;;;;4948318;29;20046;-73
2022/11/14 08:34:04;;;;;;;9.88;8.95;;;18.80;93.80;;;;;;4948239;29;20050;-74
2022/11/14 08:36:49;;;;;;;6.72;6.05;;;18.70;93.10;;;;;;4948083;29;20047;-76
2022/11/14 08:39:34;;;;;;;7.32;6.38;;;17.80;94.50;;;;;;4948058;29;20102;-74
2022/11/14 08:42:18;;;;;;;9.73;8.85;;;19.20;92.80;;;;;;4948274;29;20067;-76
2022/11/14 08:45:03;;;;;;;9.70;8.50;;;19.50;93.10;;;;;;4948052;29;20597;-76
2022/11/14 08:47:51;;;;;;;7.18;6.57;;;19.50;93.70;;;;;;4948135;29;20056;-76
2022/11/14 08:50:35;;;;;;;5.10;4.70;;;20.00;93.40;;;;;;4948660;29;20050;-76
2022/11/14 08:53:21;;;;;;;6.72;5.53;;;19.50;93.10;;;;;;4951558;29;20050;-75
2022/11/14 08:56:07;;;;;;;7.35;4.78;;;19.90;92.90;;;;;;4951078;29;20424;-75
2022/11/14 08:58:51;;;;;;;5.80;5.20;;;18.40;93.60;;;;;;4937110;29;20080;-75
2022/11/14 09:01:36;;;;;;;4.82;4.32;;;17.40;94.40;;;;;;4951652;29;20043;-76
2022/11/14 09:04:20;;;;;;;6.63;5.78;;;17.00;95.20;;;;;;4951420;29;20046;-75
2022/11/14 09:07:04;;;;;;;5.93;5.20;;;17.20;94.80;;;;;;4951145;29;20087;-76
2022/11/14 09:09:48;;;;;;;5.95;5.45;;;16.40;95.40;;;;;;4950963;29;20046;-75
2022/11/14 09:12:33;;;;;;;4.93;4.47;;;16.40;96.00;;;;;;4936758;29;20070;-76
2022/11/14 09:15:17;;;;;;;5.07;4.68;;;17.10;95.50;;;;;;4951097;29;20086;-76
2022/11/14 09:18:02;;;;;;;8.27;5.45;;;18.40;94.80;;;;;;4951260;29;20576;-75
2022/11/14 09:20:46;;;;;;;6.30;4.78;;;18.00;94.70;;;;;;4951195;29;20062;-76
2022/11/14 09:23:31;;;;;;;5.63;5.13;;;17.50;94.40;;;;;;4950858;29;20047;-76
2022/11/14 09:26:17;;;;;;;6.00;5.32;;;17.30;94.70;;;;;;4950689;29;20047;-76
2022/11/14 09:29:02;;;;;;;5.50;5.00;;;17.50;95.20;;;;;;4951012;29;20102;-75
2022/11/14 09:31:47;;;;;;;9.90;5.07;;;17.60;95.10;;;;;;4950834;29;20047;-75
2022/11/14 09:34:31;;;;;;;6.38;5.25;;;18.00;95.10;;;;;;4950978;29;20051;-76
2022/11/14 09:37:15;;;;;;;5.28;4.72;;;18.50;94.30;;;;;;4950586;29;20043;-76
2022/11/14 09:39:59;;;;;;;7.13;6.03;;;19.40;93.80;;;;;;4949739;29;20632;-76
2022/11/14 09:43:12;;;;;;;15.77;5.47;;;19.10;93.80;;;;;;4950236;29;20038;-75
2022/11/14 09:45:56;;;;;;;8.10;6.20;;;18.90;93.70;;;;;;4950362;29;20050;-76
2022/11/14 09:48:41;;;;;;;7.05;6.45;;;18.40;94.00;;;;;;4949951;29;20046;-77
2022/11/14 09:51:38;;;;;;;6.60;5.97;;;18.40;94.60;;;;;;4950420;29;20132;-77
2022/11/14 09:54:25;;;;;;;8.05;5.38;;;19.10;94.10;;;;;;4950263;29;20091;-76
2022/11/14 09:57:18;;;;;;;8.55;7.75;;;18.10;94.70;;;;;;4950418;29;20050;-76
2022/11/14 10:00:15;;;;;;;6.32;5.72;;;16.30;95.60;;;;;;4935850;29;20107;-76
2022/11/14 10:03:22;;;;;;;8.10;7.32;;;15.70;96.50;;;;;;4948497;29;20174;-76
2022/11/14 10:06:17;;;;;;;7.85;6.25;;;15.20;97.20;;;;;;4929570;29;20051;-76
2022/11/14 10:09:14;;;;;;;10.70;7.68;;;13.80;98.80;;;;;;4949919;29;20046;-77
2022/11/14 10:12:05;;;;;;;6.90;5.72;;;14.00;99.10;;;;;;4950212;29;20070;-76
2022/11/14 10:15:10;;;;;;;8.65;7.13;;;14.10;99.00;;;;;;4949866;29;20104;-76
2022/11/14 10:18:00;;;;;;;7.93;6.30;;;14.50;98.80;;;;;;4949841;29;20115;-76
2022/11/14 10:21:01;;;;;;;7.50;6.72;;;14.20;99.30;;;;;;4949538;29;20556;-76
2022/11/14 10:23:55;;;;;;;9.60;8.23;;;13.60;99.80;;;;;;4948483;29;20043;-76
2022/11/14 10:26:53;;;;;;;7.30;6.57;;;15.10;98.50;;;;;;4949582;29;20499;-76
2022/11/14 10:30:01;;;;;;;7.22;6.40;;;15.10;98.70;;;;;;4949820;29;20066;-76
2022/11/14 10:33:10;;;;;;;10.50;7.88;;;15.80;98.10;;;;;;4949496;29;20552;-77
2022/11/14 10:36:05;;;;;;;8.82;7.28;;;15.10;98.60;;;;;;4949538;29;20067;-76
2022/11/14 10:39:00;;;;;;;8.52;5.45;;;15.60;98.50;;;;;;4948837;29;20046;-76
2022/11/14 10:41:46;;;;;;;7.70;6.95;;;14.50;99.90;;;;;;4935051;29;20047;-76
2022/11/14 10:44:46;;;;;;;9.93;8.93;;;14.50;99.60;;;;;;4949577;29;20079;-77
2022/11/14 10:47:35;;;;;;;;;;;14.30;99.90;;;;;;4949964;29;20071;-77
2022/11/14 10:50:57;;;;;;;9.25;8.27;;;13.90;99.90;;;;;;4955674;29;19998;-76
2022/11/14 10:54:08;;;;;;;9.70;8.73;;;13.40;99.90;;;;;;4921701;29;20039;-76
2022/11/14 10:56:54;;;;;;;7.63;6.90;;;13.70;99.90;;;;;;4938085;29;20042;-76
2022/11/14 10:59:38;;;;;;;10.25;7.60;;;13.90;99.90;;;;;;4949093;29;20102;-76
2022/11/14 11:02:22;;;;;;;9.27;7.15;;;13.00;99.90;;;;;;4934233;29;20516;-76
2022/11/14 11:05:18;;;;;;;8.98;8.10;;;12.90;99.90;;;;;;4934374;29;20397;-76
2022/11/14 11:11:29;;;;;;;13.02;9.95;;;13.30;99.90;;;;;;4941021;29;20067;-76
2022/11/14 11:14:18;;;;;;;10.18;9.10;;;13.10;99.90;;;;;;4948364;29;20160;-76
2022/11/14 11:17:11;;;;;;;9.70;8.20;;;13.40;99.90;;;;;;4915476;29;20043;-76
2022/11/14 11:20:31;;;;;;;8.77;7.82;;;13.20;99.90;;;;;;4915457;29;20043;-76
2022/11/14 11:23:20;;;;;;;7.43;6.72;;;13.00;99.90;;;;;;4934297;29;20086;-76
2022/11/14 11:26:14;;;;;;;10.80;8.20;;;12.70;99.90;;;;;;4940908;29;20462;-76
2022/11/14 11:29:05;;;;;;;9.93;7.80;;;12.60;99.90;;;;;;4933804;29;20063;-76
2022/11/14 11:31:54;;;;;;;9.73;8.68;;;12.40;99.90;;;;;;4948624;29;20050;-77
2022/11/14 11:34:39;;;;;;;7.70;6.97;;;12.10;99.90;;;;;;4933574;29;20123;-76
2022/11/14 11:38:04;;;;;;;8.48;7.10;;;11.90;99.90;;;;;;4939879;29;20580;-76
2022/11/14 11:40:53;;;;;;;8.65;6.97;;;12.30;99.90;;;;;;4871423;29;20060;-76
2022/11/14 11:43:46;;;;;;;8.38;6.78;;;12.30;99.90;;;;;;4929501;29;20064;-76
2022/11/14 11:46:42;;;;;;;11.35;9.23;;;12.60;99.90;;;;;;4929624;29;20513;-76
2022/11/14 11:49:34;;;;;;;7.75;6.93;;;12.40;99.90;;;;;;4929647;29;20058;-76
2022/11/14 11:52:25;;;;;;;6.90;6.35;;;12.40;99.90;;;;;;4945375;29;20046;-76
2022/11/14 11:55:32;;;;;;;11.70;8.65;;;12.90;99.90;;;;;;4948446;29;20050;-76
2022/11/14 11:58:30;;;;;;;8.18;7.43;;;12.70;99.90;;;;;;4948254;29;20067;-76
2022/11/14 12:01:15;;;;;;;8.48;7.63;;;12.20;99.90;;;;;;4948436;29;20035;-76
2022/11/14 12:04:00;;;;;;;7.55;6.30;;;11.50;99.90;;;;;;4948730;29;20066;-76
2022/11/14 12:06:59;;;;;;;7.50;6.80;;;11.60;99.90;;;;;;4948040;29;20038;-76
2022/11/14 12:09:44;;;;;;;7.15;6.43;;;11.60;99.90;;;;;;4948657;29;20050;-76
2022/11/14 12:12:31;;;;;;;11.02;6.40;;;11.70;99.90;;;;;;4947711;29;20046;-76
2022/11/14 12:15:57;;;;;;;7.95;6.25;;;11.70;99.90;;;;;;4948294;29;20067;-76
2022/11/14 12:19:12;;;;;;;8.95;6.43;;;11.60;99.90;;;;;;4948334;29;20039;-76
2022/11/14 12:22:26;;;;;;;7.10;6.00;;;11.20;99.90;;;;;;4919077;29;20064;-76
2022/11/14 12:25:33;;;;;;;8.00;7.22;;;10.90;99.90;;;;;;4949126;29;20039;-75
2022/11/14 12:28:58;;;;;;;6.07;5.47;;;10.90;99.90;;;;;;4951726;29;20046;-76
2022/11/14 12:31:44;;;;;;;11.70;6.53;;;10.80;99.90;;;;;;4951704;29;20046;-76
2022/11/14 12:34:36;;;;;;;11.52;7.38;;;10.70;99.90;;;;;;4951930;29;20043;-76
2022/11/14 12:37:44;;;;;;;8.10;6.45;;;10.50;99.90;;;;;;4951782;29;20058;-76
2022/11/14 12:40:32;;;;;;;11.68;8.32;;;10.30;99.90;;;;;;4937141;29;20079;-76
2022/11/14 12:43:38;;;;;;;20.77;8.98;;;10.10;99.90;;;;;;4951710;29;20039;-76
2022/11/14 12:46:22;;;;;;;9.18;8.25;;;10.40;99.90;;;;;;4951498;29;20043;-76
2022/11/14 12:49:48;;;;;;;9.82;6.47;;;10.90;99.90;;;;;;4951651;29;20051;-76
2022/11/14 12:52:53;;;;;;;8.60;7.82;;;11.10;99.90;;;;;;4910258;29;20112;-76
2022/11/14 12:55:52;;;;;;;12.57;9.00;;;10.90;99.90;;;;;;4957910;29;20102;-76
2022/11/14 12:58:45;;;;;;;11.55;8.95;;;10.80;99.90;;;;;;4957551;29;20042;-76
2022/11/14 13:01:50;;;;;;;10.45;7.93;;;10.30;99.90;;;;;;4957625;29;20869;-75
2022/11/14 13:04:55;;;;;;;11.60;8.52;;;10.60;99.90;;;;;;4957747;29;20114;-76
2022/11/14 13:07:57;;;;;;;11.05;9.38;;;10.90;99.90;;;;;;4957717;29;20055;-76
2022/11/14 13:10:41;;;;;;;11.63;8.45;;;10.90;99.90;;;;;;4957529;29;20042;-76
2022/11/14 13:22:46;;;;;;;13.85;9.23;;;10.50;99.90;;;;;;4950868;29;20405;-76
2022/11/14 13:25:31;;;;;;;13.35;10.30;;;10.40;99.90;;;;;;4950927;29;20046;-76
2022/11/14 13:28:44;;;;;;;14.85;10.18;;;10.60;99.90;;;;;;4950519;29;20102;-76
2022/11/14 13:31:34;;;;;;;12.30;9.20;;;10.50;99.90;;;;;;4950566;29;20109;-76
2022/11/14 13:34:28;;;;;;;14.02;10.30;;;10.40;99.90;;;;;;4936147;29;20104;-76
2022/11/14 13:37:46;;;;;;;12.25;10.05;;;10.20;99.90;;;;;;4950448;29;20124;-76
2022/11/14 13:41:08;;;;;;;11.15;9.73;;;10.10;99.90;;;;;;4950752;29;20131;-76
2022/11/14 13:44:19;;;;;;;9.98;8.82;;;9.80;99.90;;;;;;4879140;29;20063;-76
2022/11/14 13:47:29;;;;;;;12.68;9.38;;;9.80;99.90;;;;;;4956761;29;20059;-76
2022/11/14 13:50:17;;;;;;;13.13;8.93;;;9.80;99.90;;;;;;4932646;29;20077;-76
2022/11/14 13:53:12;;;;;;;10.27;9.13;;;9.90;99.90;;;;;;4950366;29;20075;-76
2022/11/14 13:56:05;;;;;;;10.13;8.55;;;9.80;99.90;;;;;;4950369;29;20132;-76
2022/11/14 13:58:59;;;;;;;15.32;10.63;;;9.60;99.90;;;;;;4935551;29;20478;-76
2022/11/14 14:02:21;;;;;;;12.32;9.15;;;9.50;99.90;;;;;;4950389;29;20066;-76
2022/11/14 14:05:38;;;;;;;12.30;10.02;;;9.40;99.90;;;;;;4935349;29;20101;-76
2022/11/14 14:09:05;;;;;;;9.13;7.57;;;9.30;99.90;;;;;;4935220;29;20075;-76
2022/11/14 14:12:31;;;;;;;10.25;9.02;;;9.40;99.90;;;;;;4950153;29;20042;-76
2022/11/14 14:15:45;;;;;;;11.75;9.82;;;9.40;99.90;;;;;;4935588;29;20569;-76
2022/11/14 14:18:50;;;;;;;9.73;8.30;;;9.40;99.90;;;;;;4950011;29;20058;-75
2022/11/14 14:21:41;;;;;;;12.15;8.30;;;9.30;99.90;;;;;;4949865;29;20075;-76
2022/11/14 14:24:25;;;;;;;12.60;7.85;;;9.20;99.90;;;;;;4949985;29;20137;-76
2022/11/14 14:27:38;;;;;;;11.32;8.52;;;9.30;99.90;;;;;;4949965;29;20098;-76
2022/11/14 14:30:23;;;;;;;7.78;6.80;;;9.50;99.90;;;;;;4949708;29;20038;-76
2022/11/14 14:33:11;;;;;;;10.80;7.00;;;9.60;99.90;;;;;;4949228;29;20042;-76
2022/11/14 14:35:56;;;;;;;12.70;8.75;;;9.60;99.90;;;;;;4935095;29;20047;-76
2022/11/14 14:38:40;;;;;;;11.48;8.80;;;9.60;99.90;;;;;;4934824;29;20070;-76
2022/11/14 14:41:29;;;;;;;11.15;6.78;;;9.40;99.90;;;;;;4949516;29;20504;-76
2022/11/14 14:44:47;;;;;;;18.17;7.43;;;9.40;99.90;;;;;;4949549;29;20090;-76